Time;durP1;ratioP1;P1;durP2;ratioP2;P2;SDS_P1;SDS_P2;PMS_P1;PMS_P2;Temp;Humidity;BMP_temperature;BMP_pressure;BME280_temperature;BME280_humidity;BME280_pressure;Samples;Min_cycle;Max_cycle;Signal;HPM_P1;HPM_P2
2023/04/11 00:00:33;;;;;;;34.30;12.90;;;;;;;9.61;90.01;100791.22;5110289;28;20015;-58
2023/04/11 00:03:00;;;;;;;31.63;11.93;;;;;;;9.57;91.94;100785.25;5111149;28;20055;-57
2023/04/11 00:05:27;;;;;;;41.28;12.50;;;;;;;9.60;91.04;100784.22;5111577;28;20070;-57
2023/04/11 00:07:52;;;;;;;30.80;11.77;;;;;;;9.60;91.09;100782.41;5110873;28;20050;-57
2023/04/11 00:10:18;;;;;;;32.35;12.02;;;;;;;9.60;89.45;100777.09;5107619;28;20044;-58
2023/04/11 00:12:43;;;;;;;30.70;12.20;;;;;;;9.59;89.90;100779.81;5099063;28;20488;-57
2023/04/11 00:15:09;;;;;;;29.73;12.45;;;;;;;9.61;88.83;100785.91;5091828;28;20446;-57
2023/04/11 00:17:36;;;;;;;32.00;12.77;;;;;;;9.51;89.33;100789.13;5091417;28;20055;-58
2023/04/11 00:20:09;;;;;;;38.85;12.65;;;;;;;9.60;88.25;100793.03;5091397;28;20024;-58
2023/04/11 00:22:35;;;;;;;37.58;12.93;;;;;;;9.54;88.58;100801.34;5105814;28;20382;-57
2023/04/11 00:25:00;;;;;;;41.20;12.98;;;;;;;9.34;89.21;100783.94;5110801;28;20066;-57
2023/04/11 00:27:26;;;;;;;30.35;12.73;;;;;;;9.32;89.99;100788.47;5111848;28;20110;-57
2023/04/11 00:29:56;;;;;;;33.08;12.30;;;;;;;9.28;89.72;100798.44;5114628;28;20024;-57
2023/04/11 00:32:21;;;;;;;33.22;12.90;;;;;;;9.21;89.69;100790.94;5114124;28;20133;-58
2023/04/11 00:34:47;;;;;;;33.88;13.50;;;;;;;9.20;90.68;100787.41;5114663;28;20123;-57
2023/04/11 00:37:14;;;;;;;38.40;13.38;;;;;;;9.29;88.99;100789.53;5114571;28;20031;-57
2023/04/11 00:39:40;;;;;;;35.72;13.48;;;;;;;9.15;89.89;100799.22;5114234;28;20427;-58
2023/04/11 00:42:06;;;;;;;38.28;12.88;;;;;;;9.06;89.53;100788.22;5109080;28;20109;-57
2023/04/11 00:44:33;;;;;;;42.22;13.40;;;;;;;9.09;90.89;100800.47;5077500;28;20515;-57
2023/04/11 00:47:04;;;;;;;39.33;13.88;;;;;;;8.97;91.32;100788.75;5094917;28;20523;-58
2023/04/11 00:49:30;;;;;;;33.08;13.52;;;;;;;9.05;90.19;100794.44;5102176;28;20055;-57
2023/04/11 00:51:56;;;;;;;35.00;12.38;;;;;;;9.01;90.59;100794.75;5097392;28;20111;-57
2023/04/11 00:54:27;;;;;;;33.35;12.95;;;;;;;9.07;90.83;100805.00;5133718;27;20085;-57
2023/04/11 00:56:54;;;;;;;41.47;13.48;;;;;;;9.14;89.72;100809.00;5135495;27;20056;-57
2023/04/11 00:59:20;;;;;;;36.03;14.05;;;;;;;9.12;90.39;100794.09;5136418;27;20109;-57
2023/04/11 01:01:48;;;;;;;35.00;12.73;;;;;;;9.14;89.77;100801.03;5135855;27;20109;-57
2023/04/11 01:04:16;;;;;;;35.63;13.20;;;;;;;9.12;90.44;100799.41;5134474;27;20031;-57
2023/04/11 01:06:45;;;;;;;35.08;13.30;;;;;;;9.15;90.58;100794.81;5136110;27;20015;-58
2023/04/11 01:09:11;;;;;;;33.00;12.60;;;;;;;9.05;90.08;100798.91;5136174;27;20046;-58
2023/04/11 01:11:39;;;;;;;40.45;14.35;;;;;;;9.06;90.75;100798.00;5120438;27;20089;-58
2023/04/11 01:14:05;;;;;;;37.78;12.90;;;;;;;9.03;90.95;100795.47;5116183;27;20027;-58
2023/04/11 01:16:30;;;;;;;35.20;12.32;;;;;;;9.03;89.76;100793.72;5115033;28;20023;-57
2023/04/11 01:18:56;;;;;;;39.90;13.35;;;;;;;9.00;89.94;100796.53;5115288;28;20031;-57
2023/04/11 01:21:23;;;;;;;37.30;13.18;;;;;;;8.98;90.20;100809.03;5113932;27;20024;-58
2023/04/11 01:23:51;;;;;;;39.40;14.52;;;;;;;8.96;90.72;100788.84;5097161;28;20015;-57
2023/04/11 01:26:17;;;;;;;44.75;12.52;;;;;;;8.97;89.84;100793.19;5096495;28;20032;-57
2023/04/11 01:28:42;;;;;;;41.47;12.82;;;;;;;8.93;90.00;100792.50;5094938;28;20490;-58
2023/04/11 01:31:08;;;;;;;39.85;13.60;;;;;;;8.85;90.02;100785.00;5108651;28;20488;-57
2023/04/11 01:33:33;;;;;;;40.00;12.48;;;;;;;8.84;90.79;100793.88;5116384;27;20020;-58
2023/04/11 01:35:59;;;;;;;39.60;13.65;;;;;;;8.78;91.28;100794.25;5092183;28;20398;-58
2023/04/11 01:38:24;;;;;;;34.85;13.10;;;;;;;8.83;89.79;100799.28;5103697;28;20028;-57
2023/04/11 01:40:50;;;;;;;41.70;13.75;;;;;;;8.80;90.49;100789.72;5113746;28;20023;-58
2023/04/11 01:43:18;;;;;;;38.20;13.40;;;;;;;8.74;91.08;100802.47;5108912;27;20047;-58
2023/04/11 01:45:44;;;;;;;39.22;13.15;;;;;;;8.73;90.31;100816.66;5095834;28;20050;-57
2023/04/11 01:48:10;;;;;;;36.75;14.02;;;;;;;8.63;91.76;100811.88;5094710;28;20024;-58
2023/04/11 01:50:35;;;;;;;41.22;13.90;;;;;;;8.64;91.33;100818.88;5092734;28;20039;-57
2023/04/11 01:53:01;;;;;;;41.03;14.30;;;;;;;8.54;91.40;100817.69;5094283;28;20027;-58
2023/04/11 01:55:26;;;;;;;42.35;13.02;;;;;;;8.56;91.26;100829.06;5117874;27;20028;-58
2023/04/11 01:57:52;;;;;;;46.83;13.63;;;;;;;8.55;91.91;100829.97;5113091;28;20072;-58
2023/04/11 02:00:18;;;;;;;42.25;14.40;;;;;;;8.58;91.22;100827.16;5093883;28;20495;-58
2023/04/11 02:02:43;;;;;;;38.67;13.00;;;;;;;8.55;91.40;100829.13;5094134;28;20479;-57
2023/04/11 02:05:09;;;;;;;41.88;13.82;;;;;;;8.54;91.70;100827.44;5094446;28;20042;-58
2023/04/11 02:07:36;;;;;;;36.88;13.63;;;;;;;8.53;91.54;100826.59;5122064;27;20023;-58
2023/04/11 02:10:01;;;;;;;44.53;14.32;;;;;;;8.53;92.24;100829.22;5101817;28;20015;-58
2023/04/11 02:12:27;;;;;;;42.85;14.30;;;;;;;8.62;92.27;100835.81;5095670;28;20031;-58
2023/04/11 02:14:52;;;;;;;42.72;14.60;;;;;;;8.62;91.05;100839.31;5094821;28;20048;-57
2023/04/11 02:17:19;;;;;;;33.78;13.85;;;;;;;8.60;91.24;100841.19;5109959;27;20034;-57
2023/04/11 02:19:44;;;;;;;46.08;14.40;;;;;;;8.62;91.04;100836.69;5094011;28;20474;-58
2023/04/11 02:22:11;;;;;;;40.72;13.40;;;;;;;8.55;91.80;100842.38;5094123;28;20031;-58
2023/04/11 02:24:36;;;;;;;35.35;12.57;;;;;;;8.61;90.47;100847.34;5094108;28;20505;-58
2023/04/11 02:27:02;;;;;;;40.67;13.85;;;;;;;8.60;91.03;100843.00;5093675;28;20020;-58
2023/04/11 02:29:28;;;;;;;40.67;14.32;;;;;;;8.64;90.37;100850.69;5084135;28;20433;-58
2023/04/11 02:31:54;;;;;;;42.50;13.15;;;;;;;8.67;90.31;100844.34;5093921;28;20055;-58
2023/04/11 02:34:19;;;;;;;42.70;13.80;;;;;;;8.66;89.85;100845.31;5094501;28;20031;-58
2023/04/11 02:36:45;;;;;;;34.35;12.82;;;;;;;8.76;88.44;100853.59;5094481;28;20032;-57
2023/04/11 02:39:13;;;;;;;39.53;13.82;;;;;;;8.69;89.89;100850.44;5076846;28;20036;-57
2023/04/11 02:41:42;;;;;;;38.65;12.98;;;;;;;8.65;90.63;100848.91;5097240;27;20047;-57
2023/04/11 02:44:09;;;;;;;32.67;13.32;;;;;;;8.72;89.77;100860.03;5084461;28;20031;-57
2023/04/11 02:46:35;;;;;;;34.65;12.68;;;;;;;8.52;89.17;100824.84;5109382;27;20020;-57
2023/04/11 02:49:00;;;;;;;36.80;13.25;;;;;;;8.66;88.75;100855.91;5112141;28;20034;-58
2023/04/11 02:51:27;;;;;;;32.35;12.85;;;;;;;8.63;88.31;100856.94;5111872;28;20027;-57
2023/04/11 02:53:53;;;;;;;37.90;13.20;;;;;;;8.63;89.52;100851.63;5131885;27;20034;-58
2023/04/11 02:56:18;;;;;;;33.97;11.52;;;;;;;8.73;87.16;100854.63;5114947;27;20473;-58
2023/04/11 02:58:45;;;;;;;29.00;12.18;;;;;;;8.60;88.10;100862.41;5115672;27;20030;-58
2023/04/11 03:01:10;;;;;;;30.88;12.80;;;;;;;8.60;87.91;100861.56;5133374;27;20030;-58
2023/04/11 03:03:37;;;;;;;36.53;12.70;;;;;;;8.61;87.62;100850.84;5134021;27;20015;-58
2023/04/11 03:06:03;;;;;;;32.92;11.93;;;;;;;8.58;87.87;100858.13;5113657;27;20046;-58
2023/04/11 03:08:29;;;;;;;32.78;10.82;;;;;;;8.56;86.42;100862.63;5133999;27;20487;-58
2023/04/11 03:10:57;;;;;;;25.90;10.95;;;;;;;8.54;86.76;100859.25;5123081;27;20043;-58
2023/04/11 03:13:24;;;;;;;31.23;11.75;;;;;;;8.53;85.60;100852.22;5113848;27;20024;-58
2023/04/11 03:15:50;;;;;;;31.52;10.82;;;;;;;8.54;85.47;100865.41;5094136;28;20023;-58
2023/04/11 03:18:16;;;;;;;26.10;10.57;;;;;;;8.50;86.29;100870.94;5114142;28;20023;-57
2023/04/11 03:20:43;;;;;;;32.20;11.00;;;;;;;8.41;86.51;100877.59;5094801;28;20019;-58
2023/04/11 03:23:08;;;;;;;24.25;9.45;;;;;;;8.39;85.39;100874.19;5113205;28;20022;-58
2023/04/11 03:25:33;;;;;;;24.80;9.65;;;;;;;8.36;86.18;100882.25;5113162;28;20031;-57
2023/04/11 03:27:59;;;;;;;25.45;9.45;;;;;;;8.30;86.27;100885.25;5113101;28;20030;-57
2023/04/11 03:30:26;;;;;;;23.02;9.27;;;;;;;8.35;86.58;100891.13;5113368;27;20073;-58
2023/04/11 03:32:53;;;;;;;21.50;10.20;;;;;;;8.38;85.75;100886.56;5112585;28;20020;-57
2023/04/11 03:35:19;;;;;;;21.27;9.07;;;;;;;8.37;85.47;100887.47;5112671;28;20027;-58
2023/04/11 03:37:45;;;;;;;22.15;9.63;;;;;;;8.28;85.85;100882.66;5094657;28;20113;-57
2023/04/11 03:40:11;;;;;;;24.63;8.63;;;;;;;8.37;85.01;100898.06;5100786;27;20036;-58
2023/04/11 03:42:36;;;;;;;26.05;10.30;;;;;;;8.33;84.93;100885.06;5133197;27;20526;-58
2023/04/11 03:45:03;;;;;;;27.73;9.70;;;;;;;8.30;84.63;100893.19;5132906;27;20061;-58
2023/04/11 03:47:28;;;;;;;24.92;9.23;;;;;;;8.34;84.24;100900.88;5113420;27;20023;-58
2023/04/11 03:49:53;;;;;;;25.00;10.55;;;;;;;8.31;84.91;100895.75;5129748;27;20050;-58
2023/04/11 03:52:19;;;;;;;24.45;10.02;;;;;;;8.28;84.09;100903.00;5113701;28;20015;-57
2023/04/11 03:54:44;;;;;;;29.23;10.70;;;;;;;8.30;83.95;100904.63;5133101;27;20027;-58
2023/04/11 03:57:10;;;;;;;26.33;9.82;;;;;;;8.29;84.57;100910.84;5133173;27;20101;-58
2023/04/11 03:59:36;;;;;;;21.13;9.43;;;;;;;8.20;85.15;100909.53;5133345;27;20030;-58
2023/04/11 04:02:01;;;;;;;24.85;9.70;;;;;;;8.18;84.70;100915.88;5131875;27;20048;-57
2023/04/11 04:04:27;;;;;;;25.77;9.57;;;;;;;8.23;83.65;100908.53;5130898;27;20031;-57
2023/04/11 04:06:55;;;;;;;19.08;9.27;;;;;;;8.18;83.97;100907.94;5132962;27;20462;-57
2023/04/11 04:09:22;;;;;;;27.85;9.73;;;;;;;8.16;84.39;100908.00;5132984;28;20027;-58
2023/04/11 04:11:48;;;;;;;31.88;11.50;;;;;;;8.11;84.58;100907.38;5114591;28;20030;-58
2023/04/11 04:14:16;;;;;;;25.77;10.95;;;;;;;8.18;84.37;100906.13;5112254;28;20102;-58
2023/04/11 04:16:41;;;;;;;31.20;10.73;;;;;;;8.16;84.66;100909.81;5112966;28;20030;-57
2023/04/11 04:19:07;;;;;;;30.80;11.25;;;;;;;8.14;84.95;100911.66;5112265;28;20019;-58
2023/04/11 04:21:36;;;;;;;27.92;11.00;;;;;;;8.06;85.04;100911.19;5112763;28;20409;-58
2023/04/11 04:24:04;;;;;;;27.73;10.38;;;;;;;8.02;85.45;100904.34;5112169;28;20134;-58
2023/04/11 04:26:30;;;;;;;30.92;12.30;;;;;;;7.99;85.88;100920.41;5113078;28;20088;-57
2023/04/11 04:29:03;;;;;;;32.28;12.52;;;;;;;7.99;86.21;100921.25;5111963;28;20031;-57
2023/04/11 04:31:32;;;;;;;35.60;12.48;;;;;;;7.89;86.40;100930.63;5111544;28;20042;-58
2023/04/11 04:34:02;;;;;;;25.88;12.18;;;;;;;7.84;86.92;100938.78;5093621;28;20031;-57
2023/04/11 04:36:28;;;;;;;33.83;11.98;;;;;;;7.76;86.91;100933.00;5111001;28;20230;-57
2023/04/11 04:38:56;;;;;;;34.80;11.27;;;;;;;7.79;87.56;100945.25;5091776;28;20047;-57
2023/04/11 04:41:22;;;;;;;33.40;13.25;;;;;;;7.80;87.00;100949.63;5110527;28;20027;-57
2023/04/11 04:43:47;;;;;;;31.75;12.30;;;;;;;7.77;87.21;100945.34;5111304;28;20023;-57
2023/04/11 04:46:13;;;;;;;25.70;11.55;;;;;;;7.70;87.65;100951.84;5111587;28;20035;-57
2023/04/11 04:48:38;;;;;;;29.17;11.30;;;;;;;7.70;87.69;100955.34;5094927;28;20054;-57
2023/04/11 04:51:05;;;;;;;25.88;11.65;;;;;;;7.72;87.04;100957.94;5093286;28;20419;-56
2023/04/11 04:53:33;;;;;;;32.38;10.73;;;;;;;7.66;87.28;100961.72;5112029;28;20020;-58
2023/04/11 04:56:01;;;;;;;33.03;12.00;;;;;;;7.65;87.57;100956.53;5094102;28;20478;-57
2023/04/11 04:58:26;;;;;;;29.23;11.30;;;;;;;7.66;87.32;100977.63;5093491;28;20107;-57
2023/04/11 05:00:56;;;;;;;25.80;11.38;;;;;;;7.67;87.34;100981.97;5111390;28;20083;-57
2023/04/11 05:03:21;;;;;;;33.05;11.73;;;;;;;7.62;87.65;100980.50;5112835;28;20080;-57
2023/04/11 05:05:49;;;;;;;28.50;10.15;;;;;;;7.59;87.46;100977.97;5093476;28;20028;-57
2023/04/11 05:08:18;;;;;;;22.90;10.75;;;;;;;7.57;87.74;100995.75;5111759;28;20028;-57
2023/04/11 05:10:43;;;;;;;24.75;11.43;;;;;;;7.62;87.49;100988.44;5111939;28;20027;-57
2023/04/11 05:13:09;;;;;;;23.65;10.40;;;;;;;7.57;87.89;100993.94;5111729;28;20026;-58
2023/04/11 05:15:34;;;;;;;27.30;11.13;;;;;;;7.57;87.88;100986.00;5115221;27;20374;-57
2023/04/11 05:18:00;;;;;;;29.48;10.73;;;;;;;7.46;87.68;100989.16;5113469;28;20032;-58
2023/04/11 05:20:28;;;;;;;26.35;11.20;;;;;;;7.52;87.75;100998.59;5115371;28;20110;-58
2023/04/11 05:22:53;;;;;;;22.73;9.70;;;;;;;7.52;87.47;100990.66;5113419;28;20043;-57
2023/04/11 05:25:24;;;;;;;30.50;10.95;;;;;;;7.53;87.42;101005.63;5114958;28;20478;-58
2023/04/11 05:27:50;;;;;;;27.52;9.63;;;;;;;7.48;88.02;101000.53;5096127;28;20496;-57
2023/04/11 05:30:15;;;;;;;34.17;10.10;;;;;;;7.48;88.39;101005.84;5113222;28;20023;-57
2023/04/11 05:32:41;;;;;;;26.95;9.48;;;;;;;7.51;87.66;101012.78;5112591;28;20463;-57
2023/04/11 05:35:07;;;;;;;24.77;9.73;;;;;;;7.47;88.11;101004.13;5094334;28;20123;-58
2023/04/11 05:37:33;;;;;;;22.80;10.23;;;;;;;7.57;87.91;101015.13;5095422;28;20032;-58
2023/04/11 05:39:59;;;;;;;19.20;9.13;;;;;;;7.49;87.73;101017.28;5133789;27;20076;-58
2023/04/11 05:42:24;;;;;;;22.73;9.45;;;;;;;7.53;87.66;101020.63;5107977;27;20425;-58
2023/04/11 05:44:52;;;;;;;22.15;9.43;;;;;;;7.62;86.88;101025.50;5111527;28;20031;-58
2023/04/11 05:47:17;;;;;;;21.08;8.85;;;;;;;7.65;86.67;101030.66;5114299;28;20555;-57
2023/04/11 05:49:43;;;;;;;18.58;9.50;;;;;;;7.65;86.40;101033.28;5115804;27;20043;-59
2023/04/11 05:52:08;;;;;;;20.80;8.50;;;;;;;7.64;85.98;101027.13;5114613;28;20051;-58
2023/04/11 05:54:36;;;;;;;20.35;8.90;;;;;;;7.69;87.02;101046.28;5114645;28;20026;-58
2023/04/11 05:57:02;;;;;;;21.45;8.43;;;;;;;7.74;86.79;101043.44;5094792;28;20386;-58
2023/04/11 05:59:31;;;;;;;22.83;9.27;;;;;;;7.74;86.08;101032.84;5119480;27;20023;-57
2023/04/11 06:01:57;;;;;;;22.05;8.57;;;;;;;7.79;86.64;101044.06;5134381;27;20019;-58
2023/04/11 06:04:23;;;;;;;21.40;9.55;;;;;;;7.85;85.43;101054.38;5135139;27;20031;-58
2023/04/11 06:06:48;;;;;;;24.30;9.50;;;;;;;7.86;85.64;101055.22;5134959;27;20046;-58
2023/04/11 06:09:14;;;;;;;21.33;9.73;;;;;;;7.76;85.71;101038.06;5116223;27;20113;-57
2023/04/11 06:11:41;;;;;;;22.17;9.82;;;;;;;7.82;86.16;101056.28;5092643;27;20148;-57
2023/04/11 06:14:11;;;;;;;22.33;9.85;;;;;;;7.87;85.96;101049.00;5114623;27;20034;-57
2023/04/11 06:16:37;;;;;;;;;;;;;;;7.94;86.11;101061.88;5088404;28;20019;-58
2023/04/11 06:19:04;;;;;;;31.35;10.95;;;;;;;7.92;86.45;101063.72;5103130;28;20381;-58
2023/04/11 06:21:31;;;;;;;26.42;10.70;;;;;;;7.94;86.76;101067.16;5111237;28;20410;-58
2023/04/11 06:24:04;;;;;;;25.77;10.15;;;;;;;8.01;85.38;101058.91;5095670;28;20482;-58
2023/04/11 06:26:29;;;;;;;27.13;10.90;;;;;;;8.08;85.73;101062.97;5099613;28;20027;-58
2023/04/11 06:28:54;;;;;;;31.15;11.27;;;;;;;8.16;85.53;101063.44;5112518;28;20026;-58
2023/04/11 06:31:20;;;;;;;27.45;9.98;;;;;;;8.20;85.71;101065.00;5112951;28;20106;-58
2023/04/11 06:33:45;;;;;;;23.55;11.02;;;;;;;8.20;84.09;101057.91;5113322;28;20019;-57
2023/04/11 06:36:11;;;;;;;20.48;8.80;;;;;;;8.29;83.34;101072.50;5096186;28;20697;-58
2023/04/11 06:38:42;;;;;;;24.70;10.55;;;;;;;8.38;84.28;101071.19;5094623;28;20015;-58
2023/04/11 06:41:07;;;;;;;21.55;10.73;;;;;;;8.46;83.83;101081.44;5094715;28;20020;-58
2023/04/11 06:43:35;;;;;;;29.40;10.98;;;;;;;8.55;82.97;101084.47;5110921;28;20466;-58
2023/04/11 06:46:00;;;;;;;26.25;10.02;;;;;;;8.58;83.17;101086.97;5093570;28;20024;-58
2023/04/11 06:48:26;;;;;;;24.98;10.18;;;;;;;8.75;82.61;101094.06;5092903;28;20023;-58
2023/04/11 06:50:51;;;;;;;28.83;10.82;;;;;;;8.80;81.42;101091.19;5112338;28;20039;-58
2023/04/11 06:53:17;;;;;;;23.75;9.95;;;;;;;8.84;81.54;101084.78;5089301;28;20031;-58
2023/04/11 06:55:42;;;;;;;28.27;11.15;;;;;;;9.04;81.14;101108.47;5087355;28;20128;-58
2023/04/11 06:58:08;;;;;;;27.98;11.30;;;;;;;9.02;79.76;101102.38;5094566;28;20028;-57
2023/04/11 07:00:33;;;;;;;32.28;11.77;;;;;;;9.08;80.94;101102.03;5121570;27;20034;-58
2023/04/11 07:02:59;;;;;;;25.33;11.10;;;;;;;9.09;80.36;101098.47;5101323;27;20020;-58
2023/04/11 07:05:25;;;;;;;25.23;10.55;;;;;;;9.02;80.07;101098.88;5092274;28;20359;-58
2023/04/11 07:07:51;;;;;;;27.55;12.02;;;;;;;9.00;79.03;101091.00;5092599;28;20099;-58
2023/04/11 07:10:16;;;;;;;25.67;11.05;;;;;;;9.21;79.47;101104.94;5108044;27;20485;-57
2023/04/11 07:12:41;;;;;;;30.35;11.55;;;;;;;9.42;79.05;101115.34;5089231;28;20016;-57
2023/04/11 07:15:08;;;;;;;27.25;12.30;;;;;;;9.47;78.57;101113.25;5108497;27;20034;-58
2023/04/11 07:17:35;;;;;;;34.20;11.93;;;;;;;9.45;78.08;101120.47;5093574;28;20432;-58
2023/04/11 07:20:02;;;;;;;27.83;11.55;;;;;;;9.27;78.39;101114.38;5115663;27;20040;-58
2023/04/11 07:22:28;;;;;;;26.52;11.68;;;;;;;9.32;77.61;101117.59;5133212;27;20022;-58
2023/04/11 07:24:56;;;;;;;25.58;11.25;;;;;;;9.36;77.39;101121.84;5133587;27;20027;-58
2023/04/11 07:27:25;;;;;;;26.13;10.20;;;;;;;9.54;76.98;101134.09;5097762;28;20035;-57
2023/04/11 07:29:53;;;;;;;20.63;9.27;;;;;;;9.63;75.53;101132.75;5101300;28;20077;-58
2023/04/11 07:32:18;;;;;;;27.20;10.68;;;;;;;9.66;75.88;101143.19;5108449;27;20382;-57
2023/04/11 07:34:46;;;;;;;26.90;10.10;;;;;;;9.71;75.74;101142.97;5101830;28;20031;-58
2023/04/11 07:37:12;;;;;;;19.08;9.15;;;;;;;9.67;75.53;101141.41;5092102;28;20027;-58
2023/04/11 07:39:37;;;;;;;21.38;10.40;;;;;;;9.58;75.72;101144.56;5074533;28;20475;-58
2023/04/11 07:42:03;;;;;;;25.20;10.60;;;;;;;9.71;75.55;101156.25;5107658;28;20483;-58
2023/04/11 07:44:28;;;;;;;18.92;9.18;;;;;;;9.65;75.36;101144.16;5099125;27;20414;-58
2023/04/11 07:46:54;;;;;;;23.33;9.48;;;;;;;9.72;74.01;101155.28;5106021;27;20058;-58
2023/04/11 07:49:19;;;;;;;18.13;8.70;;;;;;;9.90;73.25;101156.94;5101410;28;20440;-58
2023/04/11 07:51:44;;;;;;;20.75;8.82;;;;;;;9.84;73.98;101144.00;5092351;28;20036;-58
2023/04/11 07:54:11;;;;;;;19.75;9.02;;;;;;;9.82;71.93;101147.66;5093759;28;20024;-58
2023/04/11 07:56:36;;;;;;;21.63;9.35;;;;;;;9.81;72.48;101151.28;5111192;27;20020;-58
2023/04/11 07:59:02;;;;;;;22.80;9.32;;;;;;;9.80;72.12;101137.13;5112015;28;20148;-58
2023/04/11 08:01:27;;;;;;;24.65;9.88;;;;;;;9.93;71.06;101162.06;5106711;28;20097;-58
2023/04/11 08:03:53;;;;;;;21.35;9.85;;;;;;;10.04;70.06;101155.31;5100189;28;20099;-58
2023/04/11 08:06:19;;;;;;;17.63;9.15;;;;;;;10.22;69.71;101164.91;5092251;28;20059;-58
2023/04/11 08:08:46;;;;;;;18.58;8.23;;;;;;;10.39;69.64;101162.19;5111710;28;20098;-58
2023/04/11 08:11:11;;;;;;;19.27;8.02;;;;;;;10.56;68.22;101160.34;5099727;28;20024;-58
2023/04/11 08:13:36;;;;;;;17.73;8.50;;;;;;;10.59;66.67;101171.69;5091951;28;20031;-57
2023/04/11 08:16:08;;;;;;;18.95;8.18;;;;;;;10.75;66.35;101165.47;5091316;28;20031;-57
2023/04/11 08:18:35;;;;;;;18.90;8.20;;;;;;;10.86;67.56;101179.84;5081166;28;20019;-58
2023/04/11 08:21:01;;;;;;;12.82;7.90;;;;;;;10.83;66.09;101166.72;5093118;28;20031;-60
2023/04/11 08:23:28;;;;;;;17.90;8.35;;;;;;;10.90;65.19;101194.66;5111708;28;20077;-58
2023/04/11 08:25:56;;;;;;;16.15;8.32;;;;;;;11.06;63.35;101193.75;5110708;28;20379;-58
2023/04/11 08:28:22;;;;;;;15.48;7.20;;;;;;;11.21;63.26;101189.34;5100434;28;20110;-58
2023/04/11 08:30:54;;;;;;;19.45;7.93;;;;;;;11.42;62.71;101205.84;5092893;28;20027;-58
2023/04/11 08:33:23;;;;;;;14.48;7.40;;;;;;;11.73;61.95;101205.63;5111487;28;20119;-58
2023/04/11 08:35:49;;;;;;;20.85;6.90;;;;;;;11.50;60.76;101207.06;5108603;28;20103;-58
2023/04/11 08:38:14;;;;;;;16.30;7.32;;;;;;;11.17;62.99;101203.78;5127407;28;20110;-58
2023/04/11 08:40:39;;;;;;;14.93;7.03;;;;;;;10.98;61.67;101209.34;5132241;28;20023;-58
2023/04/11 08:43:10;;;;;;;18.48;7.75;;;;;;;10.82;63.33;101210.22;5113707;28;20381;-58
2023/04/11 08:45:39;;;;;;;19.50;8.00;;;;;;;10.99;62.85;101214.56;5131778;28;20482;-58
2023/04/11 08:48:06;;;;;;;17.70;7.88;;;;;;;11.13;63.09;101219.94;5132328;27;20023;-58
2023/04/11 08:50:32;;;;;;;15.55;7.65;;;;;;;11.12;62.99;101222.69;5114909;27;20046;-58
2023/04/11 08:53:02;;;;;;;19.42;7.78;;;;;;;10.91;63.17;101203.50;5136273;27;20068;-58
2023/04/11 08:55:28;;;;;;;;;;;;;;;11.10;62.76;101221.94;5136531;27;20061;-58
2023/04/11 08:57:57;;;;;;;14.88;6.97;;;;;;;10.65;63.34;101203.25;5136271;27;19946;-58
2023/04/11 09:00:25;;;;;;;22.58;7.53;;;;;;;10.58;63.89;101216.97;5115627;27;20018;-58
2023/04/11 09:03:17;;;;;;;25.67;8.18;;;;;;;10.51;63.96;101216.47;5136279;27;20023;-58
2023/04/11 09:05:45;;;;;;;14.30;7.43;;;;;;;10.51;65.06;101211.16;5132137;27;20126;-59
2023/04/11 09:08:14;;;;;;;19.05;8.05;;;;;;;10.96;64.88;101206.75;5101086;27;20019;-58
2023/04/11 09:10:44;;;;;;;17.58;7.88;;;;;;;11.04;62.73;101201.84;5128703;27;20019;-58
2023/04/11 09:13:18;;;;;;;22.38;7.65;;;;;;;11.10;62.38;101214.78;5115720;28;20024;-58
2023/04/11 09:15:43;;;;;;;14.98;7.30;;;;;;;11.30;61.72;101212.75;5114975;28;20102;-58
2023/04/11 09:18:09;;;;;;;14.77;7.13;;;;;;;11.30;62.41;101216.28;5115396;28;20114;-57
2023/04/11 09:20:34;;;;;;;11.93;7.25;;;;;;;11.31;61.05;101238.44;5115351;28;20023;-59
2023/04/11 09:23:00;;;;;;;13.75;7.65;;;;;;;11.13;59.25;101237.72;5116133;27;20030;-58
2023/04/11 09:25:25;;;;;;;18.00;7.70;;;;;;;11.24;58.41;101224.63;5115209;28;20114;-58
2023/04/11 09:28:09;;;;;;;12.70;7.03;;;;;;;11.58;56.59;101230.56;5115278;28;20038;-58
2023/04/11 09:30:35;;;;;;;15.55;7.25;;;;;;;11.60;56.74;101224.19;5096476;28;20161;-58
2023/04/11 09:33:21;;;;;;;14.32;7.15;;;;;;;11.50;58.31;101236.38;5114885;28;20102;-58
2023/04/11 09:35:53;;;;;;;13.93;6.82;;;;;;;11.72;59.24;101232.38;5116074;27;20172;-58
2023/04/11 09:38:37;;;;;;;15.25;7.55;;;;;;;12.13;58.81;101231.66;5096762;28;20398;-58
2023/04/11 09:41:03;;;;;;;13.68;6.55;;;;;;;12.41;55.24;101228.06;5096519;28;20219;-58
2023/04/11 09:43:56;;;;;;;17.05;7.72;;;;;;;12.55;55.42;101237.84;5114706;28;20024;-58
2023/04/11 09:46:24;;;;;;;12.07;6.75;;;;;;;12.74;53.27;101235.69;5114362;28;20080;-58
2023/04/11 09:48:51;;;;;;;17.45;6.13;;;;;;;12.85;52.47;101232.28;5097201;28;20038;-58
2023/04/11 09:51:18;;;;;;;14.15;6.07;;;;;;;13.08;52.08;101233.41;5114559;28;20031;-58
2023/04/11 09:53:44;;;;;;;12.55;6.15;;;;;;;13.09;49.58;101227.16;5096341;28;20020;-58
2023/04/11 09:56:13;;;;;;;9.13;6.22;;;;;;;13.26;49.87;101232.19;5096154;28;20489;-58
2023/04/11 09:58:39;;;;;;;10.87;6.70;;;;;;;13.64;48.44;101239.41;5114631;28;20032;-57
2023/04/11 10:01:08;;;;;;;10.63;6.57;;;;;;;13.66;47.05;101232.13;5113723;28;20157;-58
2023/04/11 10:03:38;;;;;;;9.90;5.88;;;;;;;13.80;44.84;101231.19;5113968;28;20478;-58
2023/04/11 10:06:11;;;;;;;9.68;5.90;;;;;;;13.96;45.35;101250.50;5113719;28;20023;-58
2023/04/11 10:08:38;;;;;;;9.25;5.85;;;;;;;13.91;44.45;101233.06;5096159;28;20039;-58
2023/04/11 10:11:10;;;;;;;7.47;5.85;;;;;;;14.12;43.88;101236.03;5109206;27;20032;-58
2023/04/11 10:13:46;;;;;;;8.82;6.68;;;;;;;14.21;45.33;101233.56;5109507;28;20015;-58
2023/04/11 10:16:17;;;;;;;7.28;5.72;;;;;;;14.23;42.61;101231.63;5093969;28;20024;-58
2023/04/11 10:18:51;;;;;;;13.90;5.97;;;;;;;14.19;41.16;101227.47;5093953;28;20433;-58
2023/04/11 10:21:29;;;;;;;10.60;5.75;;;;;;;14.34;42.62;101238.03;5075484;28;20024;-58
2023/04/11 10:24:12;;;;;;;9.80;5.75;;;;;;;14.17;41.59;101221.34;5100496;27;20034;-58
2023/04/11 10:27:03;;;;;;;10.93;5.68;;;;;;;14.12;42.06;101215.50;5114068;28;20059;-58
2023/04/11 10:29:43;;;;;;;10.70;5.15;;;;;;;14.38;42.03;101229.66;5106325;28;20035;-58
2023/04/11 10:32:20;;;;;;;8.68;6.03;;;;;;;14.69;41.60;101224.75;5113238;28;20398;-58
2023/04/11 10:34:48;;;;;;;9.85;5.95;;;;;;;14.85;42.93;101227.97;5094534;28;20546;-58
2023/04/11 10:37:14;;;;;;;9.95;5.45;;;;;;;14.81;39.96;101236.38;5097216;27;20119;-58
2023/04/11 10:39:59;;;;;;;10.07;5.43;;;;;;;14.67;40.82;101238.25;5090923;28;20386;-58
2023/04/11 10:42:30;;;;;;;10.60;6.18;;;;;;;14.37;41.49;101235.13;5103805;28;20026;-58
2023/04/11 10:45:14;;;;;;;7.60;4.88;;;;;;;14.56;41.71;101230.19;5113464;28;20077;-58
2023/04/11 10:47:40;;;;;;;6.38;4.75;;;;;;;14.27;41.57;101226.94;5075078;28;20490;-60
2023/04/11 10:50:30;;;;;;;9.05;5.22;;;;;;;14.38;42.02;101229.66;5092852;28;20043;-67
2023/04/11 10:53:07;;;;;;;9.85;5.32;;;;;;;14.69;42.08;101228.28;5110356;27;20035;-58
2023/04/11 10:55:47;;;;;;;10.10;5.72;;;;;;;15.02;41.53;101231.22;5106469;28;20477;-58
2023/04/11 10:58:20;;;;;;;10.60;5.68;;;;;;;15.03;40.46;101236.50;5113176;28;20123;-58
2023/04/11 11:00:52;;;;;;;7.32;4.93;;;;;;;15.11;39.99;101235.88;5113715;27;20072;-58
2023/04/11 11:03:22;;;;;;;10.32;5.95;;;;;;;15.33;40.66;101219.88;5110896;28;20051;-58
2023/04/11 11:06:06;;;;;;;8.40;5.57;;;;;;;15.52;40.50;101238.06;5113129;28;20289;-58
2023/04/11 11:08:45;;;;;;;8.02;5.30;;;;;;;15.48;39.11;101246.47;5095069;28;20023;-58
2023/04/11 11:11:12;;;;;;;8.38;5.22;;;;;;;15.59;40.07;101235.78;5111858;27;20035;-58
2023/04/11 11:13:42;;;;;;;7.50;5.10;;;;;;;15.66;41.05;101240.53;5094560;28;20166;-58
2023/04/11 11:16:09;;;;;;;8.55;5.07;;;;;;;15.42;38.76;101243.28;5093158;28;20561;-58
2023/04/11 11:18:36;;;;;;;7.50;5.10;;;;;;;15.49;40.37;101245.50;5113094;28;20042;-58
2023/04/11 11:21:01;;;;;;;13.52;5.40;;;;;;;15.58;39.90;101224.19;5113917;27;20023;-58